Time;durP1;ratioP1;P1;durP2;ratioP2;P2;SDS_P1;SDS_P2;PMS_P1;PMS_P2;Temp;Humidity;BMP_temperature;BMP_pressure;BME280_temperature;BME280_humidity;BME280_pressure;Samples;Min_cycle;Max_cycle;Signal;HPM_P1;HPM_P2
2022/07/14 00:00:15;;;;;;;;;;;;;;;;;;1033503;28;4006;-53
2022/07/14 00:01:05;;;;;;;;;;;;;;;;;;1036931;28;3978;-50
2022/07/14 00:01:36;;;;;;;;;;;;;;;;;;1035927;28;1898;-49
2022/07/14 00:02:20;;;;;;;;;;;;;;;;;;1040508;28;3834;-52
2022/07/14 00:02:57;;;;;;;;;;;;;;;;;;1041182;28;3812;-53
2022/07/14 00:03:27;;;;;;;;;;;;;;;;;;1041455;28;1664;-50
2022/07/14 00:04:00;;;;;;;;;;;;;;;;;;1040227;28;4141;-52
2022/07/14 00:04:30;;;;;;;;;;;;;;;;;;1041225;28;1449;-49
2022/07/14 00:05:00;;;;;;;;;;;;;;;;;;1040124;28;3819;-51
2022/07/14 00:05:31;;;;;;;;;;;;;;;;;;1040751;28;1605;-53
2022/07/14 00:06:01;;;;;;;;;;;;;;;;;;1040419;28;3834;-56
2022/07/14 00:06:32;;;;;;;;;;;;;;;;;;1040311;28;1582;-52
2022/07/14 00:07:02;;;;;;;;;;;;;;;;;;1041619;28;3821;-53
2022/07/14 00:07:32;;;;;;;;;;;;;;;;;;1040486;28;1888;-56
2022/07/14 00:08:04;;;;;;;;;;;;;;;;;;1041167;28;3932;-49
2022/07/14 00:08:34;;;;;;;;;;;;;;;;;;1040987;28;1705;-50
2022/07/14 00:09:04;;;;;;;;;;;;;;;;;;1040745;28;3972;-50
2022/07/14 00:09:34;;;;;;;;;;;;;;;;;;1040255;28;1627;-52
2022/07/14 00:10:05;;;;;;;;;;;;;;;;;;1046460;28;3978;-52
2022/07/14 00:10:35;;;;;;;;;;;;;;;;;;1046482;28;1774;-54
2022/07/14 00:11:06;;;;;;;;;;;;;;;;;;1046181;28;3897;-50
2022/07/14 00:11:36;;;;;;;;;;;;;;;;;;1045709;28;1699;-48
2022/07/14 00:12:06;;;;;;;;;;;;;;;;;;1040173;28;4107;-48
2022/07/14 00:12:37;;;;;;;;;;;;;;;;;;1040748;28;1396;-53
2022/07/14 00:13:07;;;;;;;;;;;;;;;;;;1040235;28;3795;-53
2022/07/14 00:13:37;;;;;;;;;;;;;;;;;;1044713;28;1643;-55
2022/07/14 00:14:08;;;;;;;;;;;;;;;;;;1043981;28;4378;-50
2022/07/14 00:14:38;;;;;;;;;;;;;;;;;;1045054;28;1519;-55
2022/07/14 00:15:08;;;;;;;;;;;;;;;;;;1044832;28;4103;-53
2022/07/14 00:15:39;;;;;;;;;;;;;;;;;;1044491;28;1400;-51
2022/07/14 00:16:09;;;;;;;;;;;;;;;;;;1043785;28;4436;-53
2022/07/14 00:16:39;;;;;;;;;;;;;;;;;;1044603;28;1659;-48
2022/07/14 00:17:10;;;;;;;;;;;;;;;;;;1041981;28;3979;-52
2022/07/14 00:17:40;;;;;;;;;;;;;;;;;;1042628;28;1605;-47
2022/07/14 00:18:10;;;;;;;;;;;;;;;;;;1042264;28;3809;-52
2022/07/14 00:18:44;;;;;;;;;;;;;;;;;;1042381;28;2648;-49
2022/07/14 00:19:14;;;;;;;;;;;;;;;;;;1039965;28;4233;-48
2022/07/14 00:19:44;;;;;;;;;;;;;;;;;;1040936;28;1589;-53
2022/07/14 00:20:15;;;;;;;;;;;;;;;;;;1041343;28;3989;-52
2022/07/14 00:20:45;;;;;;;;;;;;;;;;;;1046310;28;1589;-51
2022/07/14 00:21:16;;;;;;;;;;;;;;;;;;1046282;28;4230;-51
2022/07/14 00:21:46;;;;;;;;;;;;;;;;;;1046753;28;1660;-53
2022/07/14 00:22:17;;;;;;;;;;;;;;;;;;1045842;28;4017;-53
2022/07/14 00:22:47;;;;;;;;;;;;;;;;;;1042294;28;1748;-51
2022/07/14 00:23:19;;;;;;;;;;;;;;;;;;1041788;28;4227;-52
2022/07/14 00:23:50;;;;;;;;;;;;;;;;;;1041826;28;1715;-50
2022/07/14 00:24:20;;;;;;;;;;;;;;;;;;1040268;28;4008;-49
2022/07/14 00:24:50;;;;;;;;;;;;;;;;;;1040856;28;1700;-54
2022/07/14 00:25:20;;;;;;;;;;;;;;;;;;1039976;28;4496;-52
2022/07/14 00:25:51;;;;;;;;;;;;;;;;;;1040594;28;1580;-53
2022/07/14 00:26:21;;;;;;;;;;;;;;;;;;1040353;28;3764;-48
2022/07/14 00:26:51;;;;;;;;;;;;;;;;;;1039778;28;1727;-49
2022/07/14 00:27:22;;;;;;;;;;;;;;;;;;1040797;28;3805;-51
2022/07/14 00:27:53;;;;;;;;;;;;;;;;;;1040540;28;1687;-52
2022/07/14 00:28:23;;;;;;;;;;;;;;;;;;1039793;28;3863;-51
2022/07/14 00:28:54;;;;;;;;;;;;;;;;;;1041215;28;1404;-51
2022/07/14 00:29:24;;;;;;;;;;;;;;;;;;1041443;28;3904;-50
2022/07/14 00:29:54;;;;;;;;;;;;;;;;;;1040167;28;1638;-49
2022/07/14 00:30:24;;;;;;;;;;;;;;;;;;1041709;28;3735;-49
2022/07/14 00:30:55;;;;;;;;;;;;;;;;;;1041183;28;1741;-50
2022/07/14 00:31:25;;;;;;;;;;;;;;;;;;1041197;28;4033;-52
2022/07/14 00:31:55;;;;;;;;;;;;;;;;;;1040989;28;1651;-51
2022/07/14 00:32:25;;;;;;;;;;;;;;;;;;1040626;28;3741;-53
2022/07/14 00:32:56;;;;;;;;;;;;;;;;;;1041424;28;4058;-49
2022/07/14 00:33:26;;;;;;;;;;;;;;;;;;1040808;28;1449;-53
2022/07/14 00:33:56;;;;;;;;;;;;;;;;;;1041030;28;4048;-50
2022/07/14 00:34:27;;;;;;;;;;;;;;;;;;1041306;28;1683;-54
2022/07/14 00:34:57;;;;;;;;;;;;;;;;;;1040353;28;4252;-51
2022/07/14 00:35:28;;;;;;;;;;;;;;;;;;1041852;28;1787;-53
2022/07/14 00:35:58;;;;;;;;;;;;;;;;;;1040159;28;3952;-54
2022/07/14 00:36:29;;;;;;;;;;;;;;;;;;1039620;28;1671;-51
2022/07/14 00:36:59;;;;;;;;;;;;;;;;;;1039881;28;3853;-51
2022/07/14 00:37:29;;;;;;;;;;;;;;;;;;1040092;28;1506;-54
2022/07/14 00:37:59;;;;;;;;;;;;;;;;;;1039551;28;4476;-54
2022/07/14 00:38:30;;;;;;;;;;;;;;;;;;1040217;28;1580;-54
2022/07/14 00:39:00;;;;;;;;;;;;;;;;;;1038438;28;4423;-52
2022/07/14 00:39:54;;;;;;;;;;;;;;;;;;1039749;28;1909;-53
2022/07/14 00:40:21;;;;;;;;;;;;;;;;;;1039507;28;4375;-48
2022/07/14 00:40:52;;;;;;;;;;;;;;;;;;1039995;28;1354;-55
2022/07/14 00:41:29;;;;;;;;;;;;;;;;;;1039527;28;5363;-49
2022/07/14 00:41:59;;;;;;;;;;;;;;;;;;1039817;28;4019;-56
2022/07/14 00:42:35;;;;;;;;;;;;;;;;;;1039892;28;1452;-54
2022/07/14 00:43:05;;;;;;;;;;;;;;;;;;1039033;28;4488;-50
2022/07/14 00:43:35;;;;;;;;;;;;;;;;;;1040162;28;1553;-52
2022/07/14 00:44:05;;;;;;;;;;;;;;;;;;1039159;28;3859;-51
2022/07/14 00:44:36;;;;;;;;;;;;;;;;;;1040323;28;1596;-49
2022/07/14 00:45:07;;;;;;;;;;;;;;;;;;1041599;28;3943;-52
2022/07/14 00:45:38;;;;;;;;;;;;;;;;;;1040481;28;1568;-52
2022/07/14 00:46:08;;;;;;;;;;;;;;;;;;1040378;28;4043;-52
2022/07/14 00:46:38;;;;;;;;;;;;;;;;;;1041373;28;1581;-52
2022/07/14 00:47:10;;;;;;;;;;;;;;;;;;1040536;28;3770;-54
2022/07/14 00:47:42;;;;;;;;;;;;;;;;;;1041772;28;1693;-52
2022/07/14 00:48:12;;;;;;;;;;;;;;;;;;1041537;28;3967;-50
2022/07/14 00:48:42;;;;;;;;;;;;;;;;;;1042298;28;1548;-50
2022/07/14 00:49:12;;;;;;;;;;;;;;;;;;1040768;28;4035;-52
2022/07/14 00:49:43;;;;;;;;;;;;;;;;;;1042096;28;1663;-46
2022/07/14 00:50:14;;;;;;;;;;;;;;;;;;1041823;28;4055;-51
2022/07/14 00:50:45;;;;;;;;;;;;;;;;;;1041991;28;1565;-51
2022/07/14 00:51:16;;;;;;;;;;;;;;;;;;1041721;28;4216;-54
2022/07/14 00:51:46;;;;;;;;;;;;;;;;;;1042306;28;1869;-48
2022/07/14 00:52:16;;;;;;;;;;;;;;;;;;1041257;28;4369;-52
2022/07/14 00:52:48;;;;;;;;;;;;;;;;;;1041906;28;1562;-53
2022/07/14 00:53:19;;;;;;;;;;;;;;;;;;1045476;28;3803;-49
2022/07/14 00:53:50;;;;;;;;;;;;;;;;;;1046407;28;1699;-51
2022/07/14 00:54:26;;;;;;;;;;;;;;;;;;1046202;28;3780;-53
2022/07/14 00:54:56;;;;;;;;;;;;;;;;;;1045216;28;4174;-53
2022/07/14 00:55:27;;;;;;;;;;;;;;;;;;1041507;28;1608;-52
2022/07/14 00:55:57;;;;;;;;;;;;;;;;;;1040955;28;4559;-51
2022/07/14 00:56:27;;;;;;;;;;;;;;;;;;1040972;28;1233;-53
2022/07/14 00:56:58;;;;;;;;;;;;;;;;;;1040214;28;4127;-54
2022/07/14 00:57:28;;;;;;;;;;;;;;;;;;1040460;28;1614;-50
2022/07/14 00:57:58;;;;;;;;;;;;;;;;;;1041236;28;4099;-50
2022/07/14 00:58:29;;;;;;;;;;;;;;;;;;1040236;28;1643;-56
2022/07/14 00:58:59;;;;;;;;;;;;;;;;;;1044311;28;3962;-52
2022/07/14 00:59:29;;;;;;;;;;;;;;;;;;1044817;28;1412;-50
2022/07/14 00:59:59;;;;;;;;;;;;;;;;;;1041154;28;4225;-52
2022/07/14 01:00:30;;;;;;;;;;;;;;;;;;1041264;28;1635;-53
2022/07/14 01:01:00;;;;;;;;;;;;;;;;;;1040347;28;4161;-51
2022/07/14 01:01:31;;;;;;;;;;;;;;;;;;1040178;28;1231;-52
2022/07/14 01:02:15;;;;;;;;;;;;;;;;;;1042259;28;4020;-50
2022/07/14 01:02:52;;;;;;;;;;;;;;;;;;1045696;28;1572;-54
2022/07/14 01:03:23;;;;;;;;;;;;;;;;;;1044552;28;4209;-54
2022/07/14 01:03:53;;;;;;;;;;;;;;;;;;1044766;28;1312;-52
2022/07/14 01:04:23;;;;;;;;;;;;;;;;;;1041857;28;4206;-49
2022/07/14 01:04:53;;;;;;;;;;;;;;;;;;1042524;28;1648;-48
2022/07/14 01:05:24;;;;;;;;;;;;;;;;;;1037883;28;3943;-51
2022/07/14 01:05:54;;;;;;;;;;;;;;;;;;1038005;28;1904;-50
2022/07/14 01:06:24;;;;;;;;;;;;;;;;;;1041637;28;4020;-53
2022/07/14 01:06:54;;;;;;;;;;;;;;;;;;1042216;28;1649;-51
2022/07/14 01:07:25;;;;;;;;;;;;;;;;;;1041567;28;3995;-51
2022/07/14 01:07:55;;;;;;;;;;;;;;;;;;1045481;28;1629;-55
2022/07/14 01:08:25;;;;;;;;;;;;;;;;;;1043859;28;3902;-52
2022/07/14 01:08:56;;;;;;;;;;;;;;;;;;1045495;28;1609;-52
2022/07/14 01:09:26;;;;;;;;;;;;;;;;;;1044092;28;3972;-54
2022/07/14 01:09:56;;;;;;;;;;;;;;;;;;1045054;28;3876;-52
2022/07/14 01:10:26;;;;;;;;;;;;;;;;;;1045300;28;1983;-53
2022/07/14 01:10:57;;;;;;;;;;;;;;;;;;1045192;28;3996;-49
2022/07/14 01:11:28;;;;;;;;;;;;;;;;;;1044101;28;1778;-54
2022/07/14 01:11:59;;;;;;;;;;;;;;;;;;1044361;28;3900;-55
2022/07/14 01:12:31;;;;;;;;;;;;;;;;;;1044757;28;1650;-50
2022/07/14 01:13:03;;;;;;;;;;;;;;;;;;1044493;28;3885;-55
2022/07/14 01:13:34;;;;;;;;;;;;;;;;;;1044306;28;2114;-52
2022/07/14 01:14:05;;;;;;;;;;;;;;;;;;1044790;28;3816;-51
2022/07/14 01:14:36;;;;;;;;;;;;;;;;;;1045249;28;1628;-54
2022/07/14 01:15:07;;;;;;;;;;;;;;;;;;1044833;28;4084;-47
2022/07/14 01:15:37;;;;;;;;;;;;;;;;;;1045114;28;1671;-50
2022/07/14 01:16:07;;;;;;;;;;;;;;;;;;1039490;28;4406;-50
2022/07/14 01:16:37;;;;;;;;;;;;;;;;;;1040161;28;1940;-52
2022/07/14 01:17:09;;;;;;;;;;;;;;;;;;1040297;28;3889;-50
2022/07/14 01:17:39;;;;;;;;;;;;;;;;;;1041058;28;1363;-49
2022/07/14 01:18:09;;;;;;;;;;;;;;;;;;1043866;28;5221;-50
2022/07/14 01:18:39;;;;;;;;;;;;;;;;;;1044708;28;2330;-49
2022/07/14 01:19:10;;;;;;;;;;;;;;;;;;1044280;28;3905;-53
2022/07/14 01:19:40;;;;;;;;;;;;;;;;;;1045115;28;1819;-56
2022/07/14 01:20:10;;;;;;;;;;;;;;;;;;1045194;28;4417;-53
2022/07/14 01:20:41;;;;;;;;;;;;;;;;;;1045777;28;1616;-53
2022/07/14 01:21:12;;;;;;;;;;;;;;;;;;1045787;28;4119;-50
2022/07/14 01:21:52;;;;;;;;;;;;;;;;;;1046197;28;1678;-51
2022/07/14 01:22:22;;;;;;;;;;;;;;;;;;1039971;28;4431;-54
2022/07/14 01:22:53;;;;;;;;;;;;;;;;;;1038108;28;1453;-55
2022/07/14 01:23:23;;;;;;;;;;;;;;;;;;1038357;28;3935;-53
2022/07/14 01:23:54;;;;;;;;;;;;;;;;;;1039196;28;1958;-51
2022/07/14 01:24:25;;;;;;;;;;;;;;;;;;1043219;28;4815;-54
2022/07/14 01:24:55;;;;;;;;;;;;;;;;;;1045730;28;1143;-52
2022/07/14 01:25:26;;;;;;;;;;;;;;;;;;1045514;28;3709;-53
2022/07/14 01:25:56;;;;;;;;;;;;;;;;;;1045118;28;4388;-52
2022/07/14 01:26:26;;;;;;;;;;;;;;;;;;1045757;28;1662;-55
2022/07/14 01:26:57;;;;;;;;;;;;;;;;;;1042721;28;4110;-51
2022/07/14 01:27:27;;;;;;;;;;;;;;;;;;1042664;28;1675;-52
2022/07/14 01:27:57;;;;;;;;;;;;;;;;;;1038705;28;3841;-52
2022/07/14 01:28:28;;;;;;;;;;;;;;;;;;1039157;28;1642;-51
2022/07/14 01:28:58;;;;;;;;;;;;;;;;;;1039864;28;3872;-54
2022/07/14 01:29:29;;;;;;;;;;;;;;;;;;1041332;28;1991;-52
2022/07/14 01:29:59;;;;;;;;;;;;;;;;;;1044580;28;3852;-54
2022/07/14 01:30:30;;;;;;;;;;;;;;;;;;1046709;28;1665;-53
2022/07/14 01:31:00;;;;;;;;;;;;;;;;;;1045401;28;4041;-54
2022/07/14 01:31:30;;;;;;;;;;;;;;;;;;1045649;28;1662;-51
2022/07/14 01:32:00;;;;;;;;;;;;;;;;;;1044560;28;4800;-50
2022/07/14 01:32:31;;;;;;;;;;;;;;;;;;1045558;28;1355;-48
2022/07/14 01:33:01;;;;;;;;;;;;;;;;;;1044632;28;4461;-51
2022/07/14 01:33:31;;;;;;;;;;;;;;;;;;1046317;28;1755;-52
2022/07/14 01:34:01;;;;;;;;;;;;;;;;;;1046671;28;3827;-53
2022/07/14 01:34:32;;;;;;;;;;;;;;;;;;1045820;28;1623;-52
2022/07/14 01:35:03;;;;;;;;;;;;;;;;;;1044330;28;4069;-53
2022/07/14 01:35:33;;;;;;;;;;;;;;;;;;1046578;28;1344;-48
2022/07/14 01:36:04;;;;;;;;;;;;;;;;;;1045048;28;3801;-54
2022/07/14 01:36:35;;;;;;;;;;;;;;;;;;1046586;28;1394;-53
2022/07/14 01:37:05;;;;;;;;;;;;;;;;;;1042629;28;3927;-54
2022/07/14 01:37:36;;;;;;;;;;;;;;;;;;1043458;28;1408;-53
2022/07/14 01:38:07;;;;;;;;;;;;;;;;;;1042134;28;4264;-54
2022/07/14 01:38:37;;;;;;;;;;;;;;;;;;1043602;28;1681;-52
2022/07/14 01:39:07;;;;;;;;;;;;;;;;;;1045197;28;4067;-53
2022/07/14 01:39:37;;;;;;;;;;;;;;;;;;1045687;28;1488;-54
2022/07/14 01:40:08;;;;;;;;;;;;;;;;;;1041857;28;3892;-51
2022/07/14 01:40:38;;;;;;;;;;;;;;;;;;1041652;28;1890;-50
2022/07/14 01:41:09;;;;;;;;;;;;;;;;;;1039827;28;3965;-51
2022/07/14 01:41:39;;;;;;;;;;;;;;;;;;1041534;28;1789;-52
2022/07/14 01:42:09;;;;;;;;;;;;;;;;;;1044893;28;3818;-55
2022/07/14 01:42:40;;;;;;;;;;;;;;;;;;1045311;28;1657;-50
2022/07/14 01:43:10;;;;;;;;;;;;;;;;;;1041733;28;4183;-50
2022/07/14 01:43:41;;;;;;;;;;;;;;;;;;1043217;28;1705;-53
2022/07/14 01:44:12;;;;;;;;;;;;;;;;;;1037829;28;3887;-49
2022/07/14 01:44:42;;;;;;;;;;;;;;;;;;1039231;28;1595;-52
2022/07/14 01:45:13;;;;;;;;;;;;;;;;;;1042362;28;4071;-55
2022/07/14 01:45:43;;;;;;;;;;;;;;;;;;1043283;28;1415;-51
2022/07/14 01:46:14;;;;;;;;;;;;;;;;;;1045228;28;3964;-53
2022/07/14 01:46:44;;;;;;;;;;;;;;;;;;1045815;28;1683;-50
2022/07/14 01:47:14;;;;;;;;;;;;;;;;;;1044927;28;3867;-51
2022/07/14 01:47:51;;;;;;;;;;;;;;;;;;1045922;28;1642;-49
2022/07/14 01:48:22;;;;;;;;;;;;;;;;;;1042173;28;4014;-53
2022/07/14 01:48:52;;;;;;;;;;;;;;;;;;1042737;28;1424;-51
2022/07/14 01:49:22;;;;;;;;;;;;;;;;;;1042593;28;4143;-50
2022/07/14 01:49:53;;;;;;;;;;;;;;;;;;1042282;28;1680;-52
2022/07/14 01:50:23;;;;;;;;;;;;;;;;;;1044654;28;4215;-48
2022/07/14 01:50:53;;;;;;;;;;;;;;;;;;1044396;28;1141;-53
2022/07/14 01:51:23;;;;;;;;;;;;;;;;;;1041445;28;3963;-52
2022/07/14 01:51:54;;;;;;;;;;;;;;;;;;1041014;28;1726;-54
2022/07/14 01:52:24;;;;;;;;;;;;;;;;;;1041420;28;4227;-54
2022/07/14 01:52:54;;;;;;;;;;;;;;;;;;1041458;28;1691;-51
2022/07/14 01:53:25;;;;;;;;;;;;;;;;;;1044514;28;3791;-53
2022/07/14 01:53:55;;;;;;;;;;;;;;;;;;1042869;28;1657;-52
2022/07/14 01:54:25;;;;;;;;;;;;;;;;;;1041870;28;3792;-51
2022/07/14 01:54:55;;;;;;;;;;;;;;;;;;1043343;28;1595;-50
2022/07/14 01:55:26;;;;;;;;;;;;;;;;;;1036826;28;3942;-53
2022/07/14 01:55:58;;;;;;;;;;;;;;;;;;1042594;28;4374;-55
2022/07/14 01:56:28;;;;;;;;;;;;;;;;;;1043128;28;2061;-50
2022/07/14 01:56:59;;;;;;;;;;;;;;;;;;1042904;28;3887;-47
2022/07/14 01:57:36;;;;;;;;;;;;;;;;;;1045876;28;1675;-51
2022/07/14 01:58:06;;;;;;;;;;;;;;;;;;1045418;28;4122;-51
2022/07/14 01:58:37;;;;;;;;;;;;;;;;;;1045763;28;1313;-55
2022/07/14 01:59:07;;;;;;;;;;;;;;;;;;1040430;28;4113;-50
2022/07/14 01:59:38;;;;;;;;;;;;;;;;;;1040953;28;1897;-49
2022/07/14 02:00:08;;;;;;;;;;;;;;;;;;1038495;28;3857;-51
2022/07/14 02:00:40;;;;;;;;;;;;;;;;;;1040931;28;1747;-53
2022/07/14 02:02:14;;;;;;;;;;;;;;;;;;1042271;28;4301;-55
2022/07/14 02:02:51;;;;;;;;;;;;;;;;;;1042413;28;1768;-52
2022/07/14 02:03:22;;;;;;;;;;;;;;;;;;1041689;28;3897;-52
2022/07/14 02:03:52;;;;;;;;;;;;;;;;;;1043030;28;1350;-53
2022/07/14 02:04:22;;;;;;;;;;;;;;;;;;1041902;28;4053;-51
2022/07/14 02:04:52;;;;;;;;;;;;;;;;;;1043100;28;1348;-50
2022/07/14 02:05:23;;;;;;;;;;;;;;;;;;1040202;28;3898;-49
2022/07/14 02:05:53;;;;;;;;;;;;;;;;;;1041619;28;1661;-50
2022/07/14 02:06:23;;;;;;;;;;;;;;;;;;1041342;28;3915;-54
2022/07/14 02:06:54;;;;;;;;;;;;;;;;;;1042144;28;1616;-51
2022/07/14 02:07:25;;;;;;;;;;;;;;;;;;1040873;28;3821;-52
2022/07/14 02:07:55;;;;;;;;;;;;;;;;;;1041349;28;1953;-52
2022/07/14 02:08:26;;;;;;;;;;;;;;;;;;1040418;28;3718;-48
2022/07/14 02:08:57;;;;;;;;;;;;;;;;;;1041454;28;3962;-52
2022/07/14 02:12:10;;;;;;;;;;;;;;;;;;1047013;28;1978;-55
2022/07/14 02:12:11;;;;;;;;;;;;;;;;;;1040670;28;1384;-50
2022/07/14 02:12:41;;;;;;;;;;;;;;;;;;1040765;28;3741;-54
2022/07/14 02:13:11;;;;;;;;;;;;;;;;;;1040056;28;4420;-50
2022/07/14 02:13:41;;;;;;;;;;;;;;;;;;1040676;28;1690;-49
2022/07/14 02:14:12;;;;;;;;;;;;;;;;;;1038778;28;3860;-55
2022/07/14 02:14:42;;;;;;;;;;;;;;;;;;1041578;28;1725;-50
2022/07/14 02:15:12;;;;;;;;;;;;;;;;;;1037508;28;3984;-52
2022/07/14 02:15:43;;;;;;;;;;;;;;;;;;1038941;28;2329;-55
2022/07/14 02:16:13;;;;;;;;;;;;;;;;;;1042582;28;4068;-50
2022/07/14 02:16:43;;;;;;;;;;;;;;;;;;1042714;28;1561;-55
2022/07/14 02:17:13;;;;;;;;;;;;;;;;;;1041277;28;3969;-48
2022/07/14 02:17:44;;;;;;;;;;;;;;;;;;1041016;28;1548;-47
2022/07/14 02:18:14;;;;;;;;;;;;;;;;;;1041262;28;3883;-50
2022/07/14 02:18:44;;;;;;;;;;;;;;;;;;1041901;28;1611;-54
2022/07/14 02:19:15;;;;;;;;;;;;;;;;;;1040888;28;4274;-52
2022/07/14 02:19:45;;;;;;;;;;;;;;;;;;1045159;28;1396;-51
2022/07/14 02:20:16;;;;;;;;;;;;;;;;;;1042376;28;3831;-50
2022/07/14 02:20:47;;;;;;;;;;;;;;;;;;1042641;28;1793;-52
2022/07/14 02:21:17;;;;;;;;;;;;;;;;;;1042209;28;4122;-52
2022/07/14 02:21:47;;;;;;;;;;;;;;;;;;1042707;28;1672;-56
2022/07/14 02:22:18;;;;;;;;;;;;;;;;;;1040374;28;4109;-49
2022/07/14 02:22:48;;;;;;;;;;;;;;;;;;1041693;28;1944;-51
2022/07/14 02:23:18;;;;;;;;;;;;;;;;;;1041635;28;4105;-49
2022/07/14 02:23:48;;;;;;;;;;;;;;;;;;1041113;28;1699;-50
2022/07/14 02:24:20;;;;;;;;;;;;;;;;;;1042513;28;4031;-54
2022/07/14 02:24:50;;;;;;;;;;;;;;;;;;1042807;28;1314;-49
2022/07/14 02:25:20;;;;;;;;;;;;;;;;;;1042165;28;4025;-51
2022/07/14 02:25:50;;;;;;;;;;;;;;;;;;1042730;28;1545;-52
2022/07/14 02:26:21;;;;;;;;;;;;;;;;;;1046659;28;5252;-49
2022/07/14 02:26:51;;;;;;;;;;;;;;;;;;1042795;28;1535;-51
2022/07/14 02:27:22;;;;;;;;;;;;;;;;;;1041883;28;3875;-51
2022/07/14 02:27:53;;;;;;;;;;;;;;;;;;1042332;28;1392;-51
2022/07/14 02:28:23;;;;;;;;;;;;;;;;;;1042273;28;4237;-55
2022/07/14 02:28:54;;;;;;;;;;;;;;;;;;1040492;28;1910;-50
2022/07/14 02:29:24;;;;;;;;;;;;;;;;;;1041018;28;4155;-54
2022/07/14 02:29:54;;;;;;;;;;;;;;;;;;1042051;28;1635;-51
2022/07/14 02:30:24;;;;;;;;;;;;;;;;;;1040673;28;4180;-52
2022/07/14 02:30:55;;;;;;;;;;;;;;;;;;1038461;28;1920;-54
2022/07/14 02:31:25;;;;;;;;;;;;;;;;;;1037950;28;3715;-51
2022/07/14 02:31:55;;;;;;;;;;;;;;;;;;1038195;28;1671;-48
2022/07/14 02:32:29;;;;;;;;;;;;;;;;;;1038629;28;3847;-50
2022/07/14 02:33:00;;;;;;;;;;;;;;;;;;1041285;28;3925;-52
2022/07/14 02:33:31;;;;;;;;;;;;;;;;;;1041717;28;1653;-53
2022/07/14 02:34:02;;;;;;;;;;;;;;;;;;1042023;28;3812;-55
2022/07/14 02:34:32;;;;;;;;;;;;;;;;;;1042849;28;1634;-53
2022/07/14 02:35:03;;;;;;;;;;;;;;;;;;1041921;28;4057;-52
2022/07/14 02:35:33;;;;;;;;;;;;;;;;;;1042600;28;3922;-51
2022/07/14 02:36:04;;;;;;;;;;;;;;;;;;1041411;28;3873;-50
2022/07/14 02:36:34;;;;;;;;;;;;;;;;;;1041216;28;1701;-52
2022/07/14 02:37:05;;;;;;;;;;;;;;;;;;1041013;28;3908;-52
2022/07/14 02:37:35;;;;;;;;;;;;;;;;;;1041073;28;1649;-53
2022/07/14 02:38:05;;;;;;;;;;;;;;;;;;1040985;28;4122;-53
2022/07/14 02:38:36;;;;;;;;;;;;;;;;;;1041643;28;1813;-51
2022/07/14 02:39:06;;;;;;;;;;;;;;;;;;1041594;28;4403;-50
2022/07/14 02:39:37;;;;;;;;;;;;;;;;;;1040131;28;1846;-50
2022/07/14 02:40:07;;;;;;;;;;;;;;;;;;1041572;28;3944;-52
2022/07/14 02:40:38;;;;;;;;;;;;;;;;;;1041366;28;1856;-53
2022/07/14 02:41:08;;;;;;;;;;;;;;;;;;1045973;28;4125;-52
2022/07/14 02:41:40;;;;;;;;;;;;;;;;;;1041050;28;1865;-53
2022/07/14 02:42:10;;;;;;;;;;;;;;;;;;1040638;28;4055;-54
2022/07/14 02:42:41;;;;;;;;;;;;;;;;;;1041854;28;1652;-52
2022/07/14 02:43:12;;;;;;;;;;;;;;;;;;1037778;28;4077;-51
2022/07/14 02:43:42;;;;;;;;;;;;;;;;;;1041198;28;1685;-51
2022/07/14 02:44:12;;;;;;;;;;;;;;;;;;1041081;28;4376;-52
2022/07/14 02:44:42;;;;;;;;;;;;;;;;;;1040084;28;1385;-51
2022/07/14 02:45:13;;;;;;;;;;;;;;;;;;1040630;28;3804;-51
2022/07/14 02:45:43;;;;;;;;;;;;;;;;;;1041628;28;1628;-51
2022/07/14 02:46:13;;;;;;;;;;;;;;;;;;1040047;28;4238;-52
2022/07/14 02:46:44;;;;;;;;;;;;;;;;;;1041386;28;1762;-54
2022/07/14 02:47:14;;;;;;;;;;;;;;;;;;1042379;28;4175;-54
2022/07/14 02:47:44;;;;;;;;;;;;;;;;;;1042628;28;1150;-50
2022/07/14 02:48:15;;;;;;;;;;;;;;;;;;1041487;28;3981;-49
2022/07/14 02:48:46;;;;;;;;;;;;;;;;;;1042555;28;1354;-56
2022/07/14 02:49:16;;;;;;;;;;;;;;;;;;1044354;28;4161;-52
2022/07/14 02:49:47;;;;;;;;;;;;;;;;;;1036187;28;1735;-52
2022/07/14 02:50:17;;;;;;;;;;;;;;;;;;1037508;28;4216;-53
2022/07/14 02:50:47;;;;;;;;;;;;;;;;;;1037735;28;1553;-53
2022/07/14 02:51:18;;;;;;;;;;;;;;;;;;1037597;28;4357;-54
2022/07/14 02:51:48;;;;;;;;;;;;;;;;;;1044785;28;1670;-52
2022/07/14 02:52:19;;;;;;;;;;;;;;;;;;1044572;28;3774;-51
2022/07/14 02:52:49;;;;;;;;;;;;;;;;;;1040419;28;1670;-52
2022/07/14 02:53:20;;;;;;;;;;;;;;;;;;1036130;28;4175;-50
2022/07/14 02:53:50;;;;;;;;;;;;;;;;;;1036614;28;1889;-54
2022/07/14 02:54:20;;;;;;;;;;;;;;;;;;1036686;28;4354;-52
2022/07/14 02:54:51;;;;;;;;;;;;;;;;;;1041359;28;1883;-52
2022/07/14 02:55:21;;;;;;;;;;;;;;;;;;1041215;28;4004;-50
2022/07/14 02:55:51;;;;;;;;;;;;;;;;;;1042085;28;1698;-52
2022/07/14 02:56:21;;;;;;;;;;;;;;;;;;1037516;28;3908;-54
2022/07/14 02:56:58;;;;;;;;;;;;;;;;;;1038531;28;4423;-54
2022/07/14 02:57:28;;;;;;;;;;;;;;;;;;1038635;28;1672;-54
2022/07/14 02:57:59;;;;;;;;;;;;;;;;;;1042192;28;3934;-53
2022/07/14 02:58:30;;;;;;;;;;;;;;;;;;1044513;28;1617;-52
2022/07/14 02:59:00;;;;;;;;;;;;;;;;;;1044931;28;3908;-50
2022/07/14 02:59:30;;;;;;;;;;;;;;;;;;1043776;28;1824;-50
2022/07/14 03:00:01;;;;;;;;;;;;;;;;;;1044160;28;3775;-53
2022/07/14 03:00:31;;;;;;;;;;;;;;;;;;1040484;28;1549;-50
2022/07/14 03:01:06;;;;;;;;;;;;;;;;;;1041622;28;3822;-54
2022/07/14 03:01:36;;;;;;;;;;;;;;;;;;1041808;28;1835;-54
2022/07/14 03:02:20;;;;;;;;;;;;;;;;;;1040725;28;3950;-56
2022/07/14 03:02:57;;;;;;;;;;;;;;;;;;1045208;28;5004;-55
2022/07/14 03:03:28;;;;;;;;;;;;;;;;;;1045195;28;1673;-52
2022/07/14 03:03:59;;;;;;;;;;;;;;;;;;1045129;28;3938;-55
2022/07/14 03:04:29;;;;;;;;;;;;;;;;;;1041784;28;1579;-54
2022/07/14 03:04:59;;;;;;;;;;;;;;;;;;1041680;28;3918;-51
2022/07/14 03:05:30;;;;;;;;;;;;;;;;;;1037609;28;1407;-51
2022/07/14 03:06:10;;;;;;;;;;;;;;;;;;1036476;28;4433;-52
2022/07/14 03:06:40;;;;;;;;;;;;;;;;;;1042857;28;1725;-55
2022/07/14 03:07:11;;;;;;;;;;;;;;;;;;1043203;28;4038;-52
2022/07/14 03:07:41;;;;;;;;;;;;;;;;;;1045848;28;1644;-52
2022/07/14 03:08:12;;;;;;;;;;;;;;;;;;1042208;28;4028;-50
2022/07/14 03:08:43;;;;;;;;;;;;;;;;;;1042851;28;1558;-50
2022/07/14 03:09:13;;;;;;;;;;;;;;;;;;1042177;28;4384;-51
2022/07/14 03:09:44;;;;;;;;;;;;;;;;;;1038685;28;1735;-50
2022/07/14 03:10:14;;;;;;;;;;;;;;;;;;1042590;28;3773;-53
2022/07/14 03:10:44;;;;;;;;;;;;;;;;;;1038479;28;1669;-55
2022/07/14 03:11:15;;;;;;;;;;;;;;;;;;1038022;28;4121;-53
2022/07/14 03:11:45;;;;;;;;;;;;;;;;;;1043090;28;1655;-54
2022/07/14 03:12:16;;;;;;;;;;;;;;;;;;1041136;28;4084;-52
2022/07/14 03:12:46;;;;;;;;;;;;;;;;;;1045515;28;1664;-51
2022/07/14 03:13:17;;;;;;;;;;;;;;;;;;1043976;28;3936;-52
2022/07/14 03:13:47;;;;;;;;;;;;;;;;;;1045687;28;1208;-53
2022/07/14 03:14:18;;;;;;;;;;;;;;;;;;1041332;28;3780;-55
2022/07/14 03:14:48;;;;;;;;;;;;;;;;;;1041981;28;1657;-55
2022/07/14 03:15:19;;;;;;;;;;;;;;;;;;1041340;28;4077;-54
2022/07/14 03:15:49;;;;;;;;;;;;;;;;;;1042055;28;1933;-53
2022/07/14 03:16:19;;;;;;;;;;;;;;;;;;1043765;28;3799;-49
2022/07/14 03:16:49;;;;;;;;;;;;;;;;;;1044814;28;1798;-57
2022/07/14 03:17:20;;;;;;;;;;;;;;;;;;1040163;28;4065;-53
2022/07/14 03:17:50;;;;;;;;;;;;;;;;;;1041224;28;1577;-52
2022/07/14 03:18:20;;;;;;;;;;;;;;;;;;1039848;28;4133;-52
2022/07/14 03:18:51;;;;;;;;;;;;;;;;;;1036585;28;1655;-56
2022/07/14 03:19:21;;;;;;;;;;;;;;;;;;1041822;28;4425;-54
2022/07/14 03:19:51;;;;;;;;;;;;;;;;;;1042642;28;1858;-51
2022/07/14 03:20:22;;;;;;;;;;;;;;;;;;1037839;28;3943;-52
2022/07/14 03:20:52;;;;;;;;;;;;;;;;;;1043175;28;1685;-53
2022/07/14 03:21:23;;;;;;;;;;;;;;;;;;1041720;28;4049;-54
2022/07/14 03:21:53;;;;;;;;;;;;;;;;;;1043444;28;1709;-53
2022/07/14 03:22:23;;;;;;;;;;;;;;;;;;1044461;28;4227;-53
2022/07/14 03:22:54;;;;;;;;;;;;;;;;;;1043798;28;1731;-53
2022/07/14 03:23:24;;;;;;;;;;;;;;;;;;1043649;28;3879;-55
2022/07/14 03:23:54;;;;;;;;;;;;;;;;;;1045562;28;1433;-55
2022/07/14 03:24:24;;;;;;;;;;;;;;;;;;1038974;28;4439;-52
2022/07/14 03:24:55;;;;;;;;;;;;;;;;;;1040985;28;1687;-50
2022/07/14 03:25:25;;;;;;;;;;;;;;;;;;1040148;28;3725;-52
2022/07/14 03:25:55;;;;;;;;;;;;;;;;;;1041125;28;1309;-52
2022/07/14 03:26:25;;;;;;;;;;;;;;;;;;1043746;28;3803;-53
2022/07/14 03:26:56;;;;;;;;;;;;;;;;;;1045865;28;1437;-51
2022/07/14 03:27:26;;;;;;;;;;;;;;;;;;1045007;28;3892;-48
2022/07/14 03:27:56;;;;;;;;;;;;;;;;;;1044244;28;4027;-53
2022/07/14 03:28:28;;;;;;;;;;;;;;;;;;1044594;28;1698;-53
2022/07/14 03:28:59;;;;;;;;;;;;;;;;;;1044265;28;3908;-53
2022/07/14 03:29:29;;;;;;;;;;;;;;;;;;1044562;28;1879;-56
2022/07/14 03:29:59;;;;;;;;;;;;;;;;;;1042291;28;3956;-53
2022/07/14 03:30:30;;;;;;;;;;;;;;;;;;1041932;28;1602;-56
2022/07/14 03:31:00;;;;;;;;;;;;;;;;;;1042516;28;4039;-55
2022/07/14 03:31:30;;;;;;;;;;;;;;;;;;1042483;28;1452;-52
2022/07/14 03:32:01;;;;;;;;;;;;;;;;;;1044596;28;4386;-55
2022/07/14 03:32:31;;;;;;;;;;;;;;;;;;1044875;28;1665;-53
2022/07/14 03:33:01;;;;;;;;;;;;;;;;;;1045918;28;3791;-51
2022/07/14 03:33:31;;;;;;;;;;;;;;;;;;1045306;28;1582;-53
2022/07/14 03:34:02;;;;;;;;;;;;;;;;;;1042113;28;3898;-49
2022/07/14 03:34:32;;;;;;;;;;;;;;;;;;1042625;28;1710;-55
2022/07/14 03:35:04;;;;;;;;;;;;;;;;;;1042678;28;3817;-51
2022/07/14 03:35:40;;;;;;;;;;;;;;;;;;1042868;28;1706;-50
2022/07/14 03:36:10;;;;;;;;;;;;;;;;;;1044942;28;4023;-54
2022/07/14 03:36:40;;;;;;;;;;;;;;;;;;1044625;28;2227;-51
2022/07/14 03:37:11;;;;;;;;;;;;;;;;;;1044850;28;3783;-53
2022/07/14 03:37:41;;;;;;;;;;;;;;;;;;1043874;28;1785;-50